Terminal Aerodrome Forecast
Issued by NWS

Home | Current Version | Previous Version | Text Only | Print | Product List | Glossary On
Versions: 1 2 3 4 5 6 7 8 9 10 11 12 13 14 15 16 17 18
000
FTUS42 KTAE 201200 AAA
TAFDHN
TAF AMD
KDHN 201207Z 2012/2112 04009KT P6SM BKN014 OVC020
     FM202000 04009G15KT P6SM SCT025 SCT250
     FM210000 05005KT P6SM SKC=

USA.gov is the U.S. government's official web portal to all federal, state and local government web resources and services.